Lumsden, Canada
Current Conditions -  °F | °C
As of 8:00 PM on Tuesday 25 Nov 2014 (Local Time) from CYQR Reporting Station
Snow Showers Snow Showers  
Wind Chill: -21°   Ceiling: 3000
Heat Index: -13°   Visibility: 6mi
Dew Point: -15°   Wind: 10mph
Humidity: 85%   Direction: 20°NNE
Pressure: 30.15"   Gusts: NA
Location:  50.64°N, 104.87°W
Report Text: CYQR 260200Z 02009KT 6SM -SHSN OVC030 M13/M15 A3015 RMK SC8 SLP253
Loading
Personal Weather Stations






























Interactive Weather Map New forecast layout! Learn more

10-Day Weather Forecast

Advertisements
Track Severe Weather on mobile